Time;durP1;ratioP1;P1;durP2;ratioP2;P2;SDS_P1;SDS_P2;PMS_P1;PMS_P2;Temp;Humidity;BMP_temperature;BMP_pressure;BME280_temperature;BME280_humidity;BME280_pressure;Samples;Min_cycle;Max_cycle;Signal;HPM_P1;HPM_P2
2022/01/30 00:00:26;;;;;;;0.60;0.50;;;;;;;;;;7380683;19;20143;-67
2022/01/30 00:02:59;;;;;;;0.60;0.60;;;;;;;;;;7372424;19;20136;-68
2022/01/30 00:05:30;;;;;;;0.60;0.60;;;;;;;;;;7381739;19;20143;-67
2022/01/30 00:08:00;;;;;;;0.40;0.40;;;;;;;;;;7380614;19;20179;-67
2022/01/30 00:10:37;;;;;;;0.65;0.50;;;;;;;;;;7380064;19;20132;-67
2022/01/30 00:13:09;;;;;;;0.90;0.60;;;;;;;;;;7384540;19;20652;-67
2022/01/30 00:15:46;;;;;;;1.10;0.82;;;;;;;;;;7383310;19;20171;-66
2022/01/30 00:18:29;;;;;;;0.63;0.50;;;;;;;;;;7380860;19;20131;-66
2022/01/30 00:21:09;;;;;;;0.60;0.60;;;;;;;;;;7381280;19;20166;-67
2022/01/30 00:23:45;;;;;;;0.82;0.82;;;;;;;;;;7380784;19;20131;-67
2022/01/30 00:26:20;;;;;;;1.13;0.60;;;;;;;;;;7375670;19;20131;-68
2022/01/30 00:28:50;;;;;;;0.68;0.47;;;;;;;;;;7385844;19;20132;-68
2022/01/30 00:31:22;;;;;;;0.77;0.60;;;;;;;;;;7380586;19;20384;-68
2022/01/30 00:33:54;;;;;;;0.57;0.57;;;;;;;;;;7378994;19;20139;-68
2022/01/30 00:36:24;;;;;;;0.82;0.60;;;;;;;;;;7381741;19;20130;-68
2022/01/30 00:38:54;;;;;;;1.77;1.00;;;;;;;;;;7381433;19;20374;-68
2022/01/30 00:41:26;;;;;;;0.70;0.50;;;;;;;;;;7381871;19;20133;-68
2022/01/30 00:43:56;;;;;;;0.50;0.40;;;;;;;;;;7382113;19;20128;-67
2022/01/30 00:46:25;;;;;;;0.85;0.65;;;;;;;;;;7378310;19;20131;-68
2022/01/30 00:48:55;;;;;;;0.60;0.60;;;;;;;;;;7383546;19;20576;-67
2022/01/30 00:51:25;;;;;;;1.27;0.70;;;;;;;;;;7379103;19;20142;-68
2022/01/30 00:53:54;;;;;;;0.70;0.60;;;;;;;;;;7382144;19;20131;-67
2022/01/30 00:56:26;;;;;;;1.65;1.55;;;;;;;;;;7381269;19;20124;-68
2022/01/30 00:58:56;;;;;;;3.63;0.70;;;;;;;;;;7382918;19;20131;-68
2022/01/30 01:01:26;;;;;;;0.65;0.65;;;;;;;;;;7376868;19;20231;-67
2022/01/30 01:03:55;;;;;;;0.60;0.55;;;;;;;;;;7378410;19;20191;-67
2022/01/30 01:06:28;;;;;;;1.38;0.80;;;;;;;;;;7385050;19;20139;-67
2022/01/30 01:09:02;;;;;;;1.23;0.82;;;;;;;;;;7383822;19;20154;-67
2022/01/30 01:12:06;;;;;;;0.90;0.70;;;;;;;;;;7386426;19;20143;-67
2022/01/30 01:25:26;;;;;;;0.85;0.63;;;;;;;;;;7399001;19;20135;-68
2022/01/30 01:27:58;;;;;;;1.13;0.90;;;;;;;;;;7398028;19;20155;-67
2022/01/30 01:30:32;;;;;;;1.50;0.70;;;;;;;;;;7394006;19;20132;-68
2022/01/30 01:33:03;;;;;;;0.70;0.60;;;;;;;;;;7390983;19;20120;-68
2022/01/30 01:35:33;;;;;;;0.77;0.77;;;;;;;;;;7403897;19;20144;-67
2022/01/30 01:38:04;;;;;;;0.73;0.65;;;;;;;;;;7396545;19;20127;-67
2022/01/30 01:40:33;;;;;;;0.68;0.68;;;;;;;;;;7391470;19;20128;-68
2022/01/30 01:43:06;;;;;;;1.15;0.75;;;;;;;;;;7395369;19;20138;-68
2022/01/30 01:45:40;;;;;;;1.10;0.85;;;;;;;;;;7391097;19;20159;-68
2022/01/30 01:48:13;;;;;;;1.67;1.00;;;;;;;;;;7399953;19;20128;-68
2022/01/30 01:50:45;;;;;;;0.55;0.52;;;;;;;;;;7391714;19;20124;-68
2022/01/30 01:53:16;;;;;;;1.10;0.95;;;;;;;;;;7397603;19;20142;-68
2022/01/30 01:55:47;;;;;;;0.85;0.80;;;;;;;;;;7394886;19;20124;-67
2022/01/30 02:01:26;;;;;;;0.70;0.70;;;;;;;;;;7384935;19;20159;-68
2022/01/30 02:03:56;;;;;;;0.98;0.80;;;;;;;;;;7380713;19;20191;-68
2022/01/30 02:06:27;;;;;;;0.60;0.60;;;;;;;;;;7379989;19;20887;-68
2022/01/30 02:09:07;;;;;;;5.75;0.88;;;;;;;;;;7391854;19;20489;-68
2022/01/30 02:11:40;;;;;;;1.15;0.68;;;;;;;;;;7397814;19;20134;-68
2022/01/30 02:14:27;;;;;;;1.40;1.00;;;;;;;;;;7396204;19;20120;-68
2022/01/30 02:25:26;;;;;;;1.50;0.85;;;;;;;;;;7390850;19;20160;-68
2022/01/30 02:27:58;;;;;;;1.10;1.00;;;;;;;;;;7393648;19;20140;-69
2022/01/30 02:30:33;;;;;;;0.75;0.68;;;;;;;;;;7396884;19;20131;-68
2022/01/30 02:33:03;;;;;;;0.98;0.80;;;;;;;;;;7392095;19;20256;-69
2022/01/30 02:35:32;;;;;;;2.67;0.50;;;;;;;;;;7393120;19;20135;-68
2022/01/30 02:38:07;;;;;;;0.77;0.77;;;;;;;;;;7395106;19;20134;-68
2022/01/30 02:40:40;;;;;;;0.80;0.80;;;;;;;;;;7397180;19;20120;-68
2022/01/30 02:43:12;;;;;;;0.80;0.70;;;;;;;;;;7384869;19;20138;-68
2022/01/30 02:45:51;;;;;;;0.75;0.75;;;;;;;;;;7390935;19;20131;-67
2022/01/30 02:48:31;;;;;;;1.27;1.00;;;;;;;;;;7392560;19;20135;-67
2022/01/30 02:51:12;;;;;;;1.20;0.98;;;;;;;;;;7396092;19;20136;-68
2022/01/30 02:53:53;;;;;;;2.13;1.35;;;;;;;;;;7391562;19;20150;-67
2022/01/30 02:56:23;;;;;;;0.63;0.63;;;;;;;;;;7385954;19;20145;-67
2022/01/30 02:58:53;;;;;;;1.08;0.98;;;;;;;;;;7389669;19;20156;-67
2022/01/30 03:01:22;;;;;;;0.88;0.82;;;;;;;;;;7381894;19;20144;-67
2022/01/30 03:03:52;;;;;;;0.50;0.40;;;;;;;;;;7396047;19;20159;-68
2022/01/30 03:06:24;;;;;;;1.50;0.70;;;;;;;;;;7392531;19;20332;-68
2022/01/30 03:08:56;;;;;;;1.73;0.93;;;;;;;;;;7388503;19;20137;-68
2022/01/30 03:11:26;;;;;;;1.10;1.00;;;;;;;;;;7391196;19;20860;-68
2022/01/30 03:13:56;;;;;;;1.60;1.20;;;;;;;;;;7393530;19;20158;-68
2022/01/30 03:16:26;;;;;;;1.45;1.15;;;;;;;;;;7393678;19;20311;-68
2022/01/30 03:18:56;;;;;;;5.75;1.30;;;;;;;;;;7392600;19;20136;-68
2022/01/30 03:21:26;;;;;;;1.10;1.00;;;;;;;;;;7391864;19;20142;-68
2022/01/30 03:23:58;;;;;;;3.33;0.98;;;;;;;;;;7386925;19;20123;-68
2022/01/30 03:26:27;;;;;;;1.20;1.00;;;;;;;;;;7388812;19;20135;-68
2022/01/30 03:29:12;;;;;;;7.05;2.65;;;;;;;;;;7392123;19;20123;-68
2022/01/30 03:31:46;;;;;;;25.55;11.30;;;;;;;;;;7388892;19;20131;-68
2022/01/30 03:34:16;;;;;;;19.20;9.35;;;;;;;;;;7389297;19;20143;-68
2022/01/30 03:36:52;;;;;;;17.17;7.28;;;;;;;;;;7389189;19;20131;-68
2022/01/30 03:39:25;;;;;;;7.30;2.88;;;;;;;;;;7388294;19;20132;-68
2022/01/30 03:41:55;;;;;;;2.28;1.30;;;;;;;;;;7392259;19;20132;-68
2022/01/30 03:44:28;;;;;;;0.82;0.82;;;;;;;;;;7389418;19;20136;-68
2022/01/30 03:46:58;;;;;;;1.25;0.88;;;;;;;;;;7391981;19;20130;-67
2022/01/30 03:49:31;;;;;;;1.58;0.82;;;;;;;;;;7397768;19;20135;-67
2022/01/30 03:52:00;;;;;;;1.00;0.90;;;;;;;;;;7392600;19;20186;-67
2022/01/30 03:54:37;;;;;;;1.65;0.77;;;;;;;;;;7392717;19;20191;-67
2022/01/30 03:57:07;;;;;;;2.95;0.88;;;;;;;;;;7392914;19;20134;-68
2022/01/30 03:59:39;;;;;;;2.97;1.10;;;;;;;;;;7394886;19;20147;-68
2022/01/30 04:02:09;;;;;;;1.30;0.80;;;;;;;;;;7371700;19;20196;-69
2022/01/30 04:04:46;;;;;;;1.08;0.98;;;;;;;;;;7399656;19;20127;-69
2022/01/30 04:07:16;;;;;;;2.55;1.17;;;;;;;;;;7390074;19;20140;-69
2022/01/30 04:10:08;;;;;;;1.90;1.20;;;;;;;;;;7395330;19;20132;-69
2022/01/30 04:12:48;;;;;;;2.13;1.00;;;;;;;;;;7387677;19;20142;-68
2022/01/30 04:15:44;;;;;;;2.45;1.05;;;;;;;;;;7390188;19;20144;-68
2022/01/30 04:18:30;;;;;;;2.22;1.10;;;;;;;;;;7388864;19;20273;-69
2022/01/30 04:21:32;;;;;;;1.70;1.00;;;;;;;;;;7379934;19;20232;-69
2022/01/30 04:24:21;;;;;;;3.05;1.45;;;;;;;;;;7390859;19;20115;-69
2022/01/30 04:27:13;;;;;;;2.47;1.48;;;;;;;;;;7394885;19;20174;-68
2022/01/30 04:30:13;;;;;;;1.83;1.40;;;;;;;;;;7383304;19;20772;-68
2022/01/30 04:33:09;;;;;;;3.67;1.75;;;;;;;;;;7392677;19;20357;-68
2022/01/30 04:35:58;;;;;;;3.20;1.92;;;;;;;;;;7391420;19;20265;-68
2022/01/30 04:38:56;;;;;;;3.25;1.70;;;;;;;;;;7391784;19;20132;-69
2022/01/30 04:57:39;;;;;;;4.53;2.33;;;;;;;;;;7400477;19;20143;-66
2022/01/30 05:00:36;;;;;;;11.15;2.90;;;;;;;;;;7391998;19;20668;-67
2022/01/30 05:06:29;;;;;;;4.75;2.40;;;;;;;;;;7389581;19;20863;-67
2022/01/30 05:09:15;;;;;;;5.25;2.80;;;;;;;;;;7387179;19;20239;-67
2022/01/30 05:12:03;;;;;;;6.50;2.10;;;;;;;;;;7403374;19;20655;-67
2022/01/30 05:14:47;;;;;;;3.38;1.90;;;;;;;;;;7404297;19;20166;-68
2022/01/30 05:17:35;;;;;;;8.70;2.30;;;;;;;;;;7405642;19;20501;-67
2022/01/30 05:20:10;;;;;;;6.05;2.47;;;;;;;;;;7402359;19;20219;-67
2022/01/30 05:22:53;;;;;;;5.25;2.63;;;;;;;;;;7401293;19;20804;-66
2022/01/30 05:25:35;;;;;;;4.13;2.20;;;;;;;;;;7401333;19;20245;-66
2022/01/30 05:28:15;;;;;;;4.97;2.95;;;;;;;;;;7392981;19;20135;-67
2022/01/30 05:31:11;;;;;;;4.45;2.00;;;;;;;;;;7389943;19;20139;-67
2022/01/30 05:34:02;;;;;;;9.38;2.63;;;;;;;;;;7400102;19;20283;-66
2022/01/30 05:36:52;;;;;;;7.00;2.35;;;;;;;;;;7394436;19;20123;-67
2022/01/30 05:39:40;;;;;;;6.40;2.65;;;;;;;;;;7403490;19;20162;-67
2022/01/30 05:42:29;;;;;;;8.00;2.15;;;;;;;;;;7394502;19;20124;-67
2022/01/30 05:45:35;;;;;;;7.90;2.60;;;;;;;;;;7391096;19;20123;-66
2022/01/30 05:48:31;;;;;;;3.40;1.75;;;;;;;;;;7398554;19;20212;-66
2022/01/30 05:51:04;;;;;;;9.75;2.75;;;;;;;;;;7394101;19;20600;-68
2022/01/30 05:53:48;;;;;;;8.52;2.83;;;;;;;;;;7402176;19;20132;-68
2022/01/30 05:56:23;;;;;;;4.68;2.30;;;;;;;;;;7390729;19;20269;-68
2022/01/30 05:58:53;;;;;;;3.67;2.50;;;;;;;;;;7400951;19;20142;-66
2022/01/30 06:01:32;;;;;;;8.18;2.88;;;;;;;;;;7382189;19;20147;-67
2022/01/30 06:04:18;;;;;;;8.30;2.55;;;;;;;;;;7395641;19;20131;-67
2022/01/30 06:06:53;;;;;;;11.60;2.42;;;;;;;;;;7391579;19;20350;-67
2022/01/30 06:09:23;;;;;;;6.45;2.83;;;;;;;;;;7398251;19;20126;-67
2022/01/30 06:11:57;;;;;;;8.00;2.67;;;;;;;;;;7393340;19;20960;-66
2022/01/30 06:14:29;;;;;;;8.07;2.75;;;;;;;;;;7395106;19;20155;-67
2022/01/30 06:17:08;;;;;;;8.07;2.60;;;;;;;;;;7401176;19;20172;-68
2022/01/30 06:19:57;;;;;;;15.40;3.08;;;;;;;;;;7393611;19;20350;-67
2022/01/30 06:22:35;;;;;;;9.55;2.10;;;;;;;;;;7402187;19;20139;-67
2022/01/30 06:25:23;;;;;;;6.75;3.10;;;;;;;;;;7394011;19;20147;-67
2022/01/30 06:28:12;;;;;;;5.25;1.80;;;;;;;;;;7397931;19;20135;-68
2022/01/30 06:31:05;;;;;;;9.52;2.50;;;;;;;;;;7389779;19;20146;-67
2022/01/30 06:33:57;;;;;;;4.78;2.15;;;;;;;;;;7392424;19;20135;-67
2022/01/30 06:36:48;;;;;;;4.03;1.80;;;;;;;;;;7397706;19;20135;-67
2022/01/30 06:39:33;;;;;;;4.00;2.25;;;;;;;;;;7392845;19;20143;-67
2022/01/30 06:42:13;;;;;;;8.02;2.42;;;;;;;;;;7395802;19;20143;-67
2022/01/30 06:45:02;;;;;;;10.32;2.53;;;;;;;;;;7394173;19;20140;-67
2022/01/30 06:47:53;;;;;;;5.85;1.95;;;;;;;;;;7394818;19;21007;-67
2022/01/30 06:50:41;;;;;;;4.43;2.55;;;;;;;;;;7387625;19;20441;-68
2022/01/30 06:53:30;;;;;;;6.47;1.90;;;;;;;;;;7398201;19;20131;-67
2022/01/30 06:56:24;;;;;;;4.38;2.22;;;;;;;;;;7395413;19;20240;-67
2022/01/30 06:59:13;;;;;;;7.85;3.55;;;;;;;;;;7389697;19;20140;-67
2022/01/30 07:02:01;;;;;;;6.85;3.67;;;;;;;;;;7384188;19;20144;-67
2022/01/30 07:04:50;;;;;;;8.18;2.42;;;;;;;;;;7390727;19;20232;-68
2022/01/30 07:07:29;;;;;;;5.63;2.35;;;;;;;;;;7393094;19;20128;-68
2022/01/30 07:09:59;;;;;;;4.28;2.05;;;;;;;;;;7394179;19;20132;-68
2022/01/30 07:12:31;;;;;;;8.48;2.50;;;;;;;;;;7384383;19;20136;-67
2022/01/30 07:15:00;;;;;;;7.47;2.30;;;;;;;;;;7399135;19;20144;-67
2022/01/30 07:17:30;;;;;;;5.88;2.33;;;;;;;;;;7399854;19;20128;-68
2022/01/30 07:20:00;;;;;;;4.22;2.10;;;;;;;;;;7405434;19;20158;-67
2022/01/30 07:22:29;;;;;;;9.15;2.90;;;;;;;;;;7382898;19;20120;-68
2022/01/30 07:24:59;;;;;;;7.10;2.38;;;;;;;;;;7397322;19;20441;-68
2022/01/30 07:27:31;;;;;;;5.65;2.63;;;;;;;;;;7395493;19;20147;-68
2022/01/30 07:30:01;;;;;;;6.07;2.55;;;;;;;;;;7398047;19;20192;-68
2022/01/30 07:32:31;;;;;;;3.50;2.40;;;;;;;;;;7395114;19;20132;-67
2022/01/30 07:35:00;;;;;;;8.75;2.83;;;;;;;;;;7400067;19;20136;-67
2022/01/30 07:37:30;;;;;;;7.70;2.92;;;;;;;;;;7396558;19;20132;-67
2022/01/30 07:40:01;;;;;;;7.50;2.90;;;;;;;;;;7400209;19;20907;-67
2022/01/30 07:42:33;;;;;;;7.25;2.47;;;;;;;;;;7401782;19;20135;-67
2022/01/30 07:45:04;;;;;;;6.85;2.80;;;;;;;;;;7399565;19;20897;-68
2022/01/30 07:47:34;;;;;;;5.88;2.47;;;;;;;;;;7399673;19;20221;-68
2022/01/30 07:50:03;;;;;;;7.90;2.72;;;;;;;;;;7397302;19;20183;-68
2022/01/30 07:52:33;;;;;;;9.07;3.25;;;;;;;;;;7396962;19;20146;-68
2022/01/30 07:55:03;;;;;;;15.13;3.17;;;;;;;;;;7396530;19;20441;-68
2022/01/30 07:57:35;;;;;;;9.25;3.10;;;;;;;;;;7392827;19;20131;-67
2022/01/30 08:00:05;;;;;;;7.70;2.65;;;;;;;;;;7397179;19;20154;-68
2022/01/30 08:02:42;;;;;;;9.00;2.97;;;;;;;;;;7373819;19;20234;-76
2022/01/30 08:05:12;;;;;;;5.63;2.97;;;;;;;;;;7398902;19;20201;-73
2022/01/30 08:07:42;;;;;;;5.65;2.30;;;;;;;;;;7393343;19;20211;-73
2022/01/30 08:10:12;;;;;;;6.80;2.92;;;;;;;;;;7386291;19;20319;-73
2022/01/30 08:12:44;;;;;;;6.78;2.60;;;;;;;;;;7386225;19;20307;-71
2022/01/30 08:15:14;;;;;;;5.70;2.85;;;;;;;;;;7388870;19;20135;-71
2022/01/30 08:17:44;;;;;;;4.55;2.10;;;;;;;;;;7383322;19;20131;-71
2022/01/30 08:20:13;;;;;;;5.55;2.05;;;;;;;;;;7387040;19;20152;-71
2022/01/30 08:22:47;;;;;;;8.02;2.50;;;;;;;;;;7393915;19;20124;-71
2022/01/30 08:25:17;;;;;;;6.05;2.50;;;;;;;;;;7386899;19;20193;-68
2022/01/30 08:27:50;;;;;;;5.65;2.72;;;;;;;;;;7391192;19;20124;-66
2022/01/30 08:30:19;;;;;;;7.70;2.55;;;7.50;70.50;;;;;;7386312;19;20128;-67
2022/01/30 08:32:51;;;;;;;13.13;3.42;;;8.70;61.50;;;;;;7381645;19;20160;-66
2022/01/30 08:35:21;;;;;;;4.57;2.33;;;8.70;61.10;;;;;;7394874;19;20120;-66
2022/01/30 08:37:50;;;;;;;7.95;2.78;;;8.70;60.30;;;;;;7380879;19;20319;-67
2022/01/30 08:40:21;;;;;;;9.57;2.58;;;8.50;60.20;;;;;;7391095;19;20127;-66
2022/01/30 08:42:54;;;;;;;5.80;2.58;;;8.40;60.60;;;;;;7376877;19;20706;-67
2022/01/30 08:45:24;;;;;;;13.82;3.13;;;8.40;60.00;;;;;;7386060;19;20347;-68
2022/01/30 08:47:54;;;;;;;6.75;2.88;;;8.30;59.80;;;;;;7388053;19;20138;-69
2022/01/30 08:50:24;;;;;;;6.47;2.30;;;8.20;60.10;;;;;;7393973;19;20142;-71
2022/01/30 08:52:54;;;;;;;5.90;2.13;;;8.30;60.20;;;;;;7385186;19;20272;-70
2022/01/30 08:55:26;;;;;;;9.07;2.28;;;8.30;60.50;;;;;;7389967;19;20761;-71
2022/01/30 08:58:00;;;;;;;8.25;2.97;;;8.40;60.50;;;;;;7385119;19;20136;-71
2022/01/30 09:00:29;;;;;;;4.22;2.45;;;8.50;60.20;;;;;;7388150;19;20138;-68
2022/01/30 09:02:59;;;;;;;6.00;2.30;;;8.50;60.10;;;;;;7378354;19;20140;-69
2022/01/30 09:05:30;;;;;;;11.13;3.35;;;8.70;59.50;;;;;;7382972;19;20159;-69
2022/01/30 09:07:59;;;;;;;6.00;2.08;;;8.70;59.00;;;;;;7379843;19;21178;-68
2022/01/30 09:10:29;;;;;;;7.05;2.33;;;8.70;59.00;;;;;;7378748;19;20214;-66
2022/01/30 09:13:01;;;;;;;8.40;2.08;;;8.80;59.00;;;;;;7370403;19;20139;-67
2022/01/30 09:15:37;;;;;;;7.57;2.97;;;8.70;58.50;;;;;;7376951;19;20207;-69
2022/01/30 09:18:10;;;;;;;11.93;2.47;;;8.70;59.20;;;;;;7377422;19;20179;-68
2022/01/30 09:20:44;;;;;;;12.20;2.72;;;8.90;58.00;;;;;;7380676;19;20488;-69
2022/01/30 09:23:14;;;;;;;9.43;2.40;;;9.10;57.60;;;;;;7383624;19;20721;-68
2022/01/30 09:25:44;;;;;;;9.00;2.40;;;10.10;56.20;;;;;;7381367;19;20134;-68
2022/01/30 09:28:16;;;;;;;6.83;2.60;;;10.90;53.40;;;;;;7384293;19;20628;-68
2022/01/30 09:30:46;;;;;;;13.40;3.17;;;10.90;51.20;;;;;;7388778;19;20627;-68
2022/01/30 09:33:17;;;;;;;9.60;2.60;;;10.40;52.50;;;;;;7383564;19;20642;-68
2022/01/30 09:35:47;;;;;;;7.83;2.80;;;10.00;53.30;;;;;;7386108;19;20405;-69
2022/01/30 09:38:19;;;;;;;7.50;4.57;;;9.70;55.00;;;;;;7390098;19;20412;-73
2022/01/30 09:40:49;;;;;;;7.70;3.20;;;;;;;;;;7386109;19;21523;-71
2022/01/30 09:43:23;;;;;;;7.23;2.10;;;;;;;;;;7386320;19;20593;-73
2022/01/30 09:45:54;;;;;;;15.10;3.47;;;9.40;55.80;;;;;;7387516;19;20412;-73
2022/01/30 09:48:26;;;;;;;13.27;2.60;;;12.60;52.70;;;;;;7385106;19;20415;-77
2022/01/30 09:50:58;;;;;;;8.50;2.30;;;13.20;47.90;;;;;;7388241;19;25076;-70
2022/01/30 09:53:27;;;;;;;8.47;3.17;;;12.50;48.60;;;;;;7387926;19;20595;-71
2022/01/30 09:55:57;;;;;;;6.70;3.30;;;11.70;50.40;;;;;;7388118;19;20412;-70
2022/01/30 09:58:29;;;;;;;11.53;3.23;;;;;;;;;;7389184;19;20397;-71
2022/01/30 10:00:59;;;;;;;15.20;4.00;;;11.00;51.60;;;;;;7383385;19;21966;-68
2022/01/30 10:03:29;;;;;;;8.87;2.80;;;10.10;54.00;;;;;;7388792;19;20401;-68
2022/01/30 10:06:04;;;;;;;13.03;2.80;;;;;;;;;;7385159;19;20424;-69
2022/01/30 10:08:41;;;;;;;9.30;3.90;;;;;;;;;;7379584;19;20424;-69
2022/01/30 10:11:27;;;;;;;13.40;3.60;;;10.00;54.60;;;;;;7378221;19;20988;-64
2022/01/30 10:14:07;;;;;;;10.93;3.30;;;;;;;;;;7385829;19;20404;-64
2022/01/30 10:16:43;;;;;;;9.70;2.63;;;;;;;;;;7386149;19;20426;-63
2022/01/30 10:19:17;;;;;;;6.17;2.57;;;;;;;;;;7379837;19;21386;-64
2022/01/30 10:21:47;;;;;;;6.10;2.67;;;;;;;;;;7377039;19;20405;-66
2022/01/30 10:24:23;;;;;;;7.13;2.60;;;;;;;;;;7385199;19;20388;-65
2022/01/30 10:26:53;;;;;;;8.77;2.73;;;;;;;;;;7382586;19;21927;-65
2022/01/30 10:29:27;;;;;;;4.13;1.97;;;;;;;;;;7378419;19;20514;-66
2022/01/30 10:32:05;;;;;;;7.90;2.43;;;;;;;;;;7383733;19;20425;-69
2022/01/30 10:34:34;;;;;;;14.33;2.57;;;;;;;;;;7376790;19;20411;-69
2022/01/30 10:37:22;;;;;;;7.63;3.30;;;;;;;;;;7369647;19;20400;-68
2022/01/30 10:39:59;;;;;;;7.00;2.35;;;;;;;;;;7379536;19;20416;-69
2022/01/30 10:42:32;;;;;;;16.83;2.50;;;;;;;;;;7383926;19;20140;-69
2022/01/30 10:45:07;;;;;;;12.98;4.47;;;;;;;;;;7387248;19;20120;-69
2022/01/30 10:47:37;;;;;;;77.03;56.67;;;;;;;;;;7386005;19;20346;-69
2022/01/30 10:50:14;;;;;;;7.82;3.58;;;;;;;;;;7385765;19;20419;-69
2022/01/30 10:52:54;;;;;;;46.47;32.92;;;;;;;;;;7374230;19;20126;-69
2022/01/30 10:55:39;;;;;;;22.15;13.10;;;;;;;;;;7377847;19;21136;-70
2022/01/30 10:58:09;;;;;;;9.57;5.07;;;;;;;;;;7381422;19;20136;-69
2022/01/30 11:00:59;;;;;;;3.30;2.07;;;;;;;;;;7377146;19;20436;-69
2022/01/30 11:03:38;;;;;;;11.20;2.93;;;;;;;;;;7376335;19;21368;-69
2022/01/30 11:06:11;;;;;;;6.77;1.90;;;;;;;;;;7386985;19;20437;-69
2022/01/30 11:08:44;;;;;;;4.20;1.97;;;;;;;;;;7380917;19;20408;-70
2022/01/30 11:11:24;;;;;;;12.03;3.50;;;;;;;;;;7385917;19;21279;-68
2022/01/30 11:14:14;;;;;;;7.60;2.87;;;;;;;;;;7380648;19;20415;-69
2022/01/30 11:19:29;;;;;;;8.87;2.70;;;13.70;42.50;;;;;;7386064;19;20506;-70
2022/01/30 11:22:02;;;;;;;6.83;2.00;;;14.60;42.80;;;;;;7384581;19;20408;-70
2022/01/30 11:24:34;;;;;;;11.23;2.67;;;15.80;40.20;;;;;;7370957;19;20413;-70
2022/01/30 11:27:07;;;;;;;7.10;2.30;;;14.70;39.90;;;;;;7370057;19;20409;-73
2022/01/30 11:29:39;;;;;;;6.73;2.80;;;13.00;42.60;;;;;;7377555;19;20419;-70
2022/01/30 11:32:13;;;;;;;8.50;2.47;;;12.00;45.30;;;;;;7362806;19;20404;-68
2022/01/30 11:34:44;;;;;;;10.03;3.10;;;12.60;46.80;;;;;;7380283;19;20405;-69
2022/01/30 11:37:16;;;;;;;8.30;2.30;;;15.80;41.60;;;;;;7372226;19;21207;-69
2022/01/30 11:39:47;;;;;;;8.30;2.17;;;17.10;37.30;;;;;;7391959;19;20634;-68
2022/01/30 11:42:21;;;;;;;7.97;3.17;;;17.60;35.50;;;;;;7380826;19;20404;-69
2022/01/30 11:44:52;;;;;;;7.60;2.40;;;18.50;35.10;;;;;;7378849;19;20416;-70
2022/01/30 11:47:25;;;;;;;9.27;2.60;;;19.90;32.30;;;;;;7377497;19;20396;-69
2022/01/30 11:50:09;;;;;;;9.37;4.20;;;19.20;31.90;;;;;;7367670;19;20416;-69
2022/01/30 11:52:53;;;;;;;7.70;1.90;;;18.60;32.50;;;;;;7380804;19;20397;-69
2022/01/30 11:55:42;;;;;;;3.87;1.93;;;18.30;32.70;;;;;;7384711;19;21027;-69
2022/01/30 11:58:38;;;;;;;8.63;2.63;;;19.20;32.60;;;;;;7381385;19;20773;-67
2022/01/30 12:01:15;;;;;;;9.10;2.57;;;18.30;32.70;;;;;;7376945;19;21350;-76
2022/01/30 12:03:59;;;;;;;5.93;2.37;;;19.00;31.90;;;;;;7381987;19;20400;-76
2022/01/30 12:06:37;;;;;;;7.17;3.00;;;17.90;33.30;;;;;;7383002;19;20423;-76
2022/01/30 12:09:22;;;;;;;8.10;2.57;;;16.10;34.40;;;;;;7376959;19;20412;-77
2022/01/30 12:12:10;;;;;;;8.43;2.80;;;14.80;36.90;;;;;;7382947;19;20409;-77
2022/01/30 12:14:57;;;;;;;8.60;1.97;;;13.30;38.80;;;;;;7393457;19;20441;-77
2022/01/30 12:18:00;;;;;;;6.80;2.60;;;14.00;40.40;;;;;;7377933;19;21253;-78
2022/01/30 12:20:34;;;;;;;11.27;2.80;;;14.70;37.00;;;;;;7390882;19;20646;-78
2022/01/30 12:23:03;;;;;;;5.37;2.77;;;14.30;37.80;;;;;;7385363;19;20412;-78
2022/01/30 12:25:40;;;;;;;8.63;2.30;;;;;;;;;;7384436;19;20689;-78
2022/01/30 12:28:11;;;;;;;6.10;2.60;;;13.50;39.30;;;;;;7386600;19;20448;-74
2022/01/30 12:30:50;;;;;;;8.93;4.43;;;14.20;40.10;;;;;;7386676;19;21223;-79
2022/01/30 12:33:35;;;;;;;6.20;2.20;;;14.70;39.40;;;;;;7329366;19;20413;-71
2022/01/30 12:36:24;;;;;;;8.93;3.23;;;16.00;35.50;;;;;;7331237;19;20421;-72
2022/01/30 12:39:03;;;;;;;7.30;3.27;;;15.80;36.50;;;;;;7331283;19;21054;-72
2022/01/30 12:41:34;;;;;;;8.27;3.90;;;17.40;33.70;;;;;;7332394;19;20423;-73
2022/01/30 12:44:05;;;;;;;7.67;2.60;;;18.80;32.30;;;;;;7326892;19;20958;-71
2022/01/30 12:46:39;;;;;;;10.37;3.20;;;19.40;31.70;;;;;;7326675;19;20435;-73
2022/01/30 12:49:11;;;;;;;8.23;2.27;;;21.40;29.10;;;;;;7322901;19;20490;-72
2022/01/30 12:51:47;;;;;;;5.50;2.00;;;22.30;28.30;;;;;;7354505;19;20400;-71
2022/01/30 12:54:19;;;;;;;7.70;2.23;;;20.70;28.40;;;;;;7388091;19;20400;-69
2022/01/30 12:56:49;;;;;;;6.13;2.57;;;19.20;29.60;;;;;;7383720;19;20469;-70
2022/01/30 12:59:20;;;;;;;8.60;2.10;;;17.80;31.40;;;;;;7387663;19;20615;-69
2022/01/30 13:01:50;;;;;;;8.43;2.30;;;16.80;32.00;;;;;;7389627;19;20542;-69
2022/01/30 13:04:22;;;;;;;5.93;2.40;;;15.90;33.60;;;;;;7397551;19;20424;-68
2022/01/30 13:06:55;;;;;;;9.33;3.60;;;15.00;35.50;;;;;;7400701;19;20427;-68
2022/01/30 13:09:25;;;;;;;7.40;2.30;;;14.30;36.60;;;;;;7389329;19;21038;-68
2022/01/30 13:11:55;;;;;;;6.67;2.83;;;13.60;37.40;;;;;;7394454;19;21219;-70
2022/01/30 13:14:34;;;;;;;5.13;2.23;;;13.60;38.00;;;;;;7397771;19;20644;-70
2022/01/30 13:17:04;;;;;;;8.90;3.00;;;13.30;38.20;;;;;;7370104;19;20419;-68
2022/01/30 13:19:36;;;;;;;7.03;2.50;;;13.30;38.40;;;;;;7396311;19;20426;-67
2022/01/30 13:22:10;;;;;;;5.27;2.30;;;12.90;39.00;;;;;;7389493;19;20417;-74
2022/01/30 13:24:40;;;;;;;5.07;2.30;;;12.70;39.70;;;;;;7395460;19;20461;-69
2022/01/30 13:27:12;;;;;;;10.13;2.87;;;12.60;40.00;;;;;;7394554;19;20941;-68
2022/01/30 13:29:42;;;;;;;7.40;2.20;;;12.70;39.90;;;;;;7386922;19;20404;-69
2022/01/30 13:32:14;;;;;;;9.77;3.07;;;12.70;40.30;;;;;;7392876;19;20611;-69
2022/01/30 13:34:46;;;;;;;9.00;2.80;;;12.70;40.00;;;;;;7397868;19;20524;-70
2022/01/30 13:37:20;;;;;;;5.77;2.77;;;12.30;39.30;;;;;;7395931;19;20404;-70
2022/01/30 13:40:03;;;;;;;4.87;2.30;;;11.90;40.90;;;;;;7400084;19;20412;-69
2022/01/30 13:42:45;;;;;;;4.27;1.70;;;;;;;;;;7401013;19;20427;-70
2022/01/30 13:48:09;;;;;;;6.07;2.13;;;11.60;41.50;;;;;;7398801;19;20630;-70
2022/01/30 13:50:41;;;;;;;6.87;2.50;;;10.80;42.80;;;;;;7393540;19;20507;-70
2022/01/30 13:53:15;;;;;;;8.00;2.43;;;10.60;43.10;;;;;;7398370;19;20626;-70
2022/01/30 13:55:57;;;;;;;5.83;2.20;;;10.20;44.30;;;;;;7396483;19;20428;-70
2022/01/30 13:58:30;;;;;;;7.90;2.20;;;10.40;44.40;;;;;;7393923;19;20415;-70
2022/01/30 14:01:03;;;;;;;5.63;2.70;;;10.30;44.40;;;;;;7392601;19;20424;-71
2022/01/30 14:03:32;;;;;;;9.60;2.87;;;10.40;44.40;;;;;;7392342;19;20392;-70
2022/01/30 14:06:02;;;;;;;6.80;2.77;;;10.30;44.20;;;;;;7386764;19;20401;-69
2022/01/30 14:08:35;;;;;;;5.53;1.87;;;;;;;;;;7384513;19;20421;-69
2022/01/30 14:11:08;;;;;;;12.13;2.83;;;;;;;;;;7405929;19;20650;-69
2022/01/30 14:13:41;;;;;;;3.53;1.63;;;10.10;44.50;;;;;;7405051;19;20405;-79
2022/01/30 14:16:15;;;;;;;7.67;1.90;;;8.80;45.90;;;;;;7403794;19;20408;-71
2022/01/30 14:18:54;;;;;;;8.33;2.77;;;9.60;46.40;;;;;;7419867;19;20419;-75
2022/01/30 14:21:28;;;;;;;7.30;2.03;;;9.60;46.50;;;;;;7409099;19;20451;-73
2022/01/30 14:24:00;;;;;;;8.37;2.00;;;9.70;46.50;;;;;;7423775;19;20433;-72
2022/01/30 14:26:31;;;;;;;7.17;2.47;;;9.60;45.60;;;;;;7407511;19;20409;-71
2022/01/30 14:29:12;;;;;;;7.00;2.35;;;9.50;46.10;;;;;;7411432;19;20633;-72
2022/01/30 14:31:55;;;;;;;4.47;2.47;;;9.50;46.30;;;;;;7408646;19;20120;-71
2022/01/30 14:34:26;;;;;;;6.83;1.93;;;9.50;46.50;;;;;;7402334;19;20520;-70
2022/01/30 14:37:02;;;;;;;5.50;2.07;;;9.50;46.60;;;;;;7399756;19;20405;-71
2022/01/30 14:39:36;;;;;;;10.63;2.72;;;9.60;46.70;;;;;;7406240;19;20740;-69
2022/01/30 14:42:10;;;;;;;13.23;2.87;;;9.80;46.40;;;;;;7403272;19;20174;-71
2022/01/30 14:44:40;;;;;;;6.43;2.20;;;9.80;46.60;;;;;;7386410;19;20471;-67
2022/01/30 14:47:12;;;;;;;8.27;2.70;;;9.90;45.90;;;;;;7392289;19;20459;-67
2022/01/30 14:49:43;;;;;;;5.07;1.90;;;9.90;43.80;;;;;;7398278;19;20455;-74
2022/01/30 14:52:12;;;;;;;6.28;2.22;;;9.70;43.50;;;;;;7398617;19;20383;-70
2022/01/30 14:54:45;;;;;;;8.27;2.80;;;9.50;44.00;;;;;;7383977;19;20447;-73
2022/01/30 14:57:15;;;;;;;6.57;2.80;;;9.60;44.40;;;;;;7385199;19;20475;-75
2022/01/30 14:59:47;;;;;;;3.67;1.67;;;9.70;44.60;;;;;;7386488;19;20399;-74
2022/01/30 15:02:16;;;;;;;4.60;2.47;;;9.60;45.00;;;;;;7386480;19;20510;-75
2022/01/30 15:04:46;;;;;;;5.90;2.47;;;9.60;45.20;;;;;;7391874;19;20416;-73
2022/01/30 15:07:15;;;;;;;9.45;1.90;;;9.60;44.90;;;;;;7379836;19;20564;-43
2022/01/30 15:09:48;;;;;;;3.90;1.80;;;9.60;45.40;;;;;;7355307;19;20237;-43
2022/01/30 15:12:20;;;;;;;9.07;2.30;;;;;;;;;;7359856;19;20139;-44
2022/01/30 15:14:53;;;;;;;6.90;2.03;;;;;;;;;;7358389;19;20911;-38
2022/01/30 15:17:31;;;;;;;5.10;2.30;;;;;;;;;;7362416;19;20383;-38
2022/01/30 15:20:04;;;;;;;11.27;2.20;;;;;;;;;;7367577;19;21195;-44
2022/01/30 15:22:36;;;;;;;9.57;2.58;;;;;;;;;;7362226;19;20159;-44
2022/01/30 15:25:09;;;;;;;5.85;2.45;;;;;;;;;;7365702;19;20132;-45
2022/01/30 15:27:42;;;;;;;5.20;2.40;;;9.50;45.50;;;;;;7347664;19;20483;-50
2022/01/30 15:30:15;;;;;;;8.45;2.28;;;;;;;;;;7363522;19;20372;-49
2022/01/30 15:32:44;;;;;;;6.30;2.00;;;;;;;;;;7366230;19;20170;-49